sensor_id;sensor_type;location;lat;lon;timestamp;P1;durP1;ratioP1;P2;durP2;ratioP2
64667;SDS011;51077;42.716;23.344;2022-07-10T00:01:23;10.47;;;8.53;;
64667;SDS011;51077;42.716;23.344;2022-07-10T00:03:49;10.97;;;8.73;;
64667;SDS011;51077;42.716;23.344;2022-07-10T00:06:15;9.30;;;8.40;;
64667;SDS011;51077;42.716;23.344;2022-07-10T00:08:41;9.75;;;8.65;;
64667;SDS011;51077;42.716;23.344;2022-07-10T00:11:07;9.85;;;8.77;;
64667;SDS011;51077;42.716;23.344;2022-07-10T00:13:34;10.20;;;8.68;;
64667;SDS011;51077;42.716;23.344;2022-07-10T00:15:59;9.85;;;8.85;;
64667;SDS011;51077;42.716;23.344;2022-07-10T00:18:26;9.05;;;8.10;;
64667;SDS011;51077;42.716;23.344;2022-07-10T00:20:53;8.73;;;7.82;;
64667;SDS011;51077;42.716;23.344;2022-07-10T00:23:18;8.83;;;7.93;;
64667;SDS011;51077;42.716;23.344;2022-07-10T00:25:44;9.03;;;8.13;;
64667;SDS011;51077;42.716;23.344;2022-07-10T00:28:09;11.10;;;8.70;;
64667;SDS011;51077;42.716;23.344;2022-07-10T00:30:36;10.00;;;8.98;;
64667;SDS011;51077;42.716;23.344;2022-07-10T00:33:02;9.77;;;8.17;;
64667;SDS011;51077;42.716;23.344;2022-07-10T00:35:28;11.07;;;8.43;;
64667;SDS011;51077;42.716;23.344;2022-07-10T00:37:53;8.60;;;7.80;;
64667;SDS011;51077;42.716;23.344;2022-07-10T00:40:19;9.23;;;8.37;;
64667;SDS011;51077;42.716;23.344;2022-07-10T00:42:45;9.57;;;8.68;;
64667;SDS011;51077;42.716;23.344;2022-07-10T00:45:10;8.40;;;7.60;;
64667;SDS011;51077;42.716;23.344;2022-07-10T00:47:36;10.47;;;8.17;;
64667;SDS011;51077;42.716;23.344;2022-07-10T00:50:02;10.13;;;8.13;;
64667;SDS011;51077;42.716;23.344;2022-07-10T00:52:28;10.23;;;7.80;;
64667;SDS011;51077;42.716;23.344;2022-07-10T00:54:53;9.67;;;8.77;;
64667;SDS011;51077;42.716;23.344;2022-07-10T00:57:19;9.88;;;8.38;;
64667;SDS011;51077;42.716;23.344;2022-07-10T00:59:46;8.43;;;7.63;;
64667;SDS011;51077;42.716;23.344;2022-07-10T01:02:14;9.38;;;8.38;;
64667;SDS011;51077;42.716;23.344;2022-07-10T01:04:42;10.48;;;8.32;;
64667;SDS011;51077;42.716;23.344;2022-07-10T01:07:07;8.67;;;7.50;;
64667;SDS011;51077;42.716;23.344;2022-07-10T01:09:33;9.27;;;8.37;;
64667;SDS011;51077;42.716;23.344;2022-07-10T01:11:59;12.15;;;8.98;;
64667;SDS011;51077;42.716;23.344;2022-07-10T01:14:27;9.68;;;8.68;;
64667;SDS011;51077;42.716;23.344;2022-07-10T01:16:55;8.63;;;7.80;;
64667;SDS011;51077;42.716;23.344;2022-07-10T01:19:20;8.70;;;7.80;;
64667;SDS011;51077;42.716;23.344;2022-07-10T01:21:46;8.90;;;8.00;;
64667;SDS011;51077;42.716;23.344;2022-07-10T01:24:11;8.97;;;7.70;;
64667;SDS011;51077;42.716;23.344;2022-07-10T01:26:37;9.10;;;8.20;;
64667;SDS011;51077;42.716;23.344;2022-07-10T01:29:07;8.63;;;7.78;;
64667;SDS011;51077;42.716;23.344;2022-07-10T01:31:33;10.57;;;8.40;;
64667;SDS011;51077;42.716;23.344;2022-07-10T01:33:59;9.47;;;8.07;;
64667;SDS011;51077;42.716;23.344;2022-07-10T01:36:27;10.23;;;8.10;;
64667;SDS011;51077;42.716;23.344;2022-07-10T01:38:54;9.05;;;8.10;;
64667;SDS011;51077;42.716;23.344;2022-07-10T01:41:20;10.13;;;8.35;;
64667;SDS011;51077;42.716;23.344;2022-07-10T01:43:46;8.82;;;7.57;;
64667;SDS011;51077;42.716;23.344;2022-07-10T01:46:13;7.90;;;7.10;;
64667;SDS011;51077;42.716;23.344;2022-07-10T01:48:39;8.88;;;7.75;;
64667;SDS011;51077;42.716;23.344;2022-07-10T01:51:05;8.70;;;7.80;;
64667;SDS011;51077;42.716;23.344;2022-07-10T01:53:31;9.38;;;7.63;;
64667;SDS011;51077;42.716;23.344;2022-07-10T01:55:57;11.43;;;7.07;;
64667;SDS011;51077;42.716;23.344;2022-07-10T01:58:24;8.55;;;7.68;;
64667;SDS011;51077;42.716;23.344;2022-07-10T02:00:49;10.57;;;7.93;;
64667;SDS011;51077;42.716;23.344;2022-07-10T02:03:15;8.17;;;7.37;;
64667;SDS011;51077;42.716;23.344;2022-07-10T02:05:59;9.52;;;7.80;;
64667;SDS011;51077;42.716;23.344;2022-07-10T02:08:24;9.60;;;8.13;;
64667;SDS011;51077;42.716;23.344;2022-07-10T02:10:50;7.60;;;6.90;;
64667;SDS011;51077;42.716;23.344;2022-07-10T02:13:15;7.77;;;6.97;;
64667;SDS011;51077;42.716;23.344;2022-07-10T02:15:43;10.40;;;8.27;;
64667;SDS011;51077;42.716;23.344;2022-07-10T02:18:08;8.97;;;7.70;;
64667;SDS011;51077;42.716;23.344;2022-07-10T02:20:34;8.73;;;7.83;;
64667;SDS011;51077;42.716;23.344;2022-07-10T02:23:00;8.13;;;7.33;;
64667;SDS011;51077;42.716;23.344;2022-07-10T02:25:25;9.57;;;7.83;;
64667;SDS011;51077;42.716;23.344;2022-07-10T02:27:51;12.80;;;7.63;;
64667;SDS011;51077;42.716;23.344;2022-07-10T02:30:16;10.23;;;7.93;;
64667;SDS011;51077;42.716;23.344;2022-07-10T02:32:42;9.90;;;8.33;;
64667;SDS011;51077;42.716;23.344;2022-07-10T02:35:07;9.47;;;7.67;;
64667;SDS011;51077;42.716;23.344;2022-07-10T02:37:33;7.93;;;6.97;;
64667;SDS011;51077;42.716;23.344;2022-07-10T02:39:59;8.80;;;7.23;;
64667;SDS011;51077;42.716;23.344;2022-07-10T02:42:24;8.83;;;7.37;;
64667;SDS011;51077;42.716;23.344;2022-07-10T02:44:49;9.13;;;7.13;;
64667;SDS011;51077;42.716;23.344;2022-07-10T02:47:15;9.90;;;7.77;;
64667;SDS011;51077;42.716;23.344;2022-07-10T02:49:40;8.03;;;7.23;;
64667;SDS011;51077;42.716;23.344;2022-07-10T02:52:05;10.97;;;7.10;;
64667;SDS011;51077;42.716;23.344;2022-07-10T02:54:31;9.00;;;7.50;;
64667;SDS011;51077;42.716;23.344;2022-07-10T02:56:56;7.60;;;6.80;;
64667;SDS011;51077;42.716;23.344;2022-07-10T02:59:22;7.87;;;7.07;;
64667;SDS011;51077;42.716;23.344;2022-07-10T03:01:47;11.50;;;8.07;;
64667;SDS011;51077;42.716;23.344;2022-07-10T03:04:13;8.63;;;7.10;;
64667;SDS011;51077;42.716;23.344;2022-07-10T03:06:38;8.37;;;6.90;;
64667;SDS011;51077;42.716;23.344;2022-07-10T03:09:04;8.67;;;7.03;;
64667;SDS011;51077;42.716;23.344;2022-07-10T03:11:29;8.30;;;6.70;;
64667;SDS011;51077;42.716;23.344;2022-07-10T03:13:54;7.67;;;6.93;;
64667;SDS011;51077;42.716;23.344;2022-07-10T03:16:20;8.27;;;7.00;;
64667;SDS011;51077;42.716;23.344;2022-07-10T03:18:45;8.20;;;7.40;;
64667;SDS011;51077;42.716;23.344;2022-07-10T03:21:11;8.47;;;7.13;;
64667;SDS011;51077;42.716;23.344;2022-07-10T03:23:36;10.10;;;7.30;;
64667;SDS011;51077;42.716;23.344;2022-07-10T03:26:04;7.90;;;6.97;;
64667;SDS011;51077;42.716;23.344;2022-07-10T03:28:30;8.40;;;7.22;;
64667;SDS011;51077;42.716;23.344;2022-07-10T03:30:56;8.33;;;6.70;;
64667;SDS011;51077;42.716;23.344;2022-07-10T03:33:21;10.13;;;8.70;;
64667;SDS011;51077;42.716;23.344;2022-07-10T03:35:47;7.57;;;6.80;;
64667;SDS011;51077;42.716;23.344;2022-07-10T03:38:13;9.85;;;7.28;;
64667;SDS011;51077;42.716;23.344;2022-07-10T03:40:38;9.50;;;7.07;;
64667;SDS011;51077;42.716;23.344;2022-07-10T03:43:04;7.70;;;7.00;;
64667;SDS011;51077;42.716;23.344;2022-07-10T03:45:29;7.40;;;6.67;;
64667;SDS011;51077;42.716;23.344;2022-07-10T03:47:55;7.93;;;7.10;;
64667;SDS011;51077;42.716;23.344;2022-07-10T03:50:20;7.80;;;6.53;;
64667;SDS011;51077;42.716;23.344;2022-07-10T03:52:46;8.40;;;6.90;;
64667;SDS011;51077;42.716;23.344;2022-07-10T03:55:11;8.80;;;7.00;;
64667;SDS011;51077;42.716;23.344;2022-07-10T03:57:37;8.17;;;7.07;;
64667;SDS011;51077;42.716;23.344;2022-07-10T04:00:24;7.65;;;6.70;;
64667;SDS011;51077;42.716;23.344;2022-07-10T04:03:01;7.38;;;6.68;;
64667;SDS011;51077;42.716;23.344;2022-07-10T04:05:28;7.32;;;6.63;;
64667;SDS011;51077;42.716;23.344;2022-07-10T04:07:54;8.32;;;6.40;;
64667;SDS011;51077;42.716;23.344;2022-07-10T04:10:24;8.02;;;6.75;;
64667;SDS011;51077;42.716;23.344;2022-07-10T04:12:52;8.13;;;6.57;;
64667;SDS011;51077;42.716;23.344;2022-07-10T04:15:19;10.02;;;6.70;;
64667;SDS011;51077;42.716;23.344;2022-07-10T04:17:44;8.82;;;5.95;;
64667;SDS011;51077;42.716;23.344;2022-07-10T04:20:10;7.07;;;6.37;;
64667;SDS011;51077;42.716;23.344;2022-07-10T04:22:36;8.10;;;6.57;;
64667;SDS011;51077;42.716;23.344;2022-07-10T04:25:03;9.07;;;5.57;;
64667;SDS011;51077;42.716;23.344;2022-07-10T04:27:29;6.75;;;5.95;;
64667;SDS011;51077;42.716;23.344;2022-07-10T04:29:54;7.27;;;6.53;;
64667;SDS011;51077;42.716;23.344;2022-07-10T04:32:20;11.23;;;6.70;;
64667;SDS011;51077;42.716;23.344;2022-07-10T04:34:46;11.97;;;7.33;;
64667;SDS011;51077;42.716;23.344;2022-07-10T04:37:11;8.10;;;6.07;;
64667;SDS011;51077;42.716;23.344;2022-07-10T04:39:37;6.73;;;6.10;;
64667;SDS011;51077;42.716;23.344;2022-07-10T04:42:03;8.05;;;6.38;;
64667;SDS011;51077;42.716;23.344;2022-07-10T04:44:32;7.93;;;6.20;;
64667;SDS011;51077;42.716;23.344;2022-07-10T04:46:58;7.20;;;6.00;;
64667;SDS011;51077;42.716;23.344;2022-07-10T04:49:24;10.67;;;6.20;;
64667;SDS011;51077;42.716;23.344;2022-07-10T04:51:50;7.70;;;5.93;;
64667;SDS011;51077;42.716;23.344;2022-07-10T04:54:15;8.33;;;5.97;;
64667;SDS011;51077;42.716;23.344;2022-07-10T04:56:40;9.17;;;6.60;;
64667;SDS011;51077;42.716;23.344;2022-07-10T04:59:06;6.97;;;5.73;;
64667;SDS011;51077;42.716;23.344;2022-07-10T05:01:32;6.72;;;6.03;;
64667;SDS011;51077;42.716;23.344;2022-07-10T05:03:58;8.63;;;5.90;;
64667;SDS011;51077;42.716;23.344;2022-07-10T05:06:23;8.80;;;5.60;;
64667;SDS011;51077;42.716;23.344;2022-07-10T05:08:49;7.23;;;6.00;;
64667;SDS011;51077;42.716;23.344;2022-07-10T05:11:14;6.57;;;5.33;;
64667;SDS011;51077;42.716;23.344;2022-07-10T05:13:40;7.83;;;5.83;;
64667;SDS011;51077;42.716;23.344;2022-07-10T05:16:05;7.13;;;5.47;;
64667;SDS011;51077;42.716;23.344;2022-07-10T05:18:31;8.63;;;5.53;;
64667;SDS011;51077;42.716;23.344;2022-07-10T05:20:56;6.77;;;5.30;;
64667;SDS011;51077;42.716;23.344;2022-07-10T05:23:22;6.83;;;5.70;;
64667;SDS011;51077;42.716;23.344;2022-07-10T05:25:47;6.80;;;5.40;;
64667;SDS011;51077;42.716;23.344;2022-07-10T05:28:13;5.80;;;5.13;;
64667;SDS011;51077;42.716;23.344;2022-07-10T05:30:40;7.70;;;5.85;;
64667;SDS011;51077;42.716;23.344;2022-07-10T05:33:05;9.40;;;5.68;;
64667;SDS011;51077;42.716;23.344;2022-07-10T05:35:31;6.37;;;5.27;;
64667;SDS011;51077;42.716;23.344;2022-07-10T05:37:56;8.13;;;5.60;;
64667;SDS011;51077;42.716;23.344;2022-07-10T05:40:21;7.60;;;5.30;;
64667;SDS011;51077;42.716;23.344;2022-07-10T05:42:47;6.23;;;4.87;;
64667;SDS011;51077;42.716;23.344;2022-07-10T05:45:12;6.23;;;5.37;;
64667;SDS011;51077;42.716;23.344;2022-07-10T05:47:38;9.73;;;5.50;;
64667;SDS011;51077;42.716;23.344;2022-07-10T05:50:04;6.60;;;5.10;;
64667;SDS011;51077;42.716;23.344;2022-07-10T05:52:30;6.63;;;5.27;;
64667;SDS011;51077;42.716;23.344;2022-07-10T05:54:56;7.70;;;5.00;;
64667;SDS011;51077;42.716;23.344;2022-07-10T05:57:22;6.55;;;5.82;;
64667;SDS011;51077;42.716;23.344;2022-07-10T05:59:48;5.43;;;4.93;;
64667;SDS011;51077;42.716;23.344;2022-07-10T06:02:14;6.23;;;4.90;;
64667;SDS011;51077;42.716;23.344;2022-07-10T06:04:40;5.65;;;4.60;;
64667;SDS011;51077;42.716;23.344;2022-07-10T06:07:05;5.73;;;4.50;;
64667;SDS011;51077;42.716;23.344;2022-07-10T06:09:31;8.30;;;4.63;;
64667;SDS011;51077;42.716;23.344;2022-07-10T06:11:56;6.03;;;4.33;;
64667;SDS011;51077;42.716;23.344;2022-07-10T06:14:21;5.53;;;4.73;;
64667;SDS011;51077;42.716;23.344;2022-07-10T06:16:47;5.93;;;4.90;;
64667;SDS011;51077;42.716;23.344;2022-07-10T06:19:12;6.80;;;4.83;;
64667;SDS011;51077;42.716;23.344;2022-07-10T06:21:38;7.33;;;5.00;;
64667;SDS011;51077;42.716;23.344;2022-07-10T06:24:03;6.07;;;4.60;;
64667;SDS011;51077;42.716;23.344;2022-07-10T06:26:29;6.33;;;4.40;;
64667;SDS011;51077;42.716;23.344;2022-07-10T06:28:54;6.20;;;4.60;;
64667;SDS011;51077;42.716;23.344;2022-07-10T06:31:20;7.90;;;4.10;;
64667;SDS011;51077;42.716;23.344;2022-07-10T06:33:45;6.37;;;4.33;;
64667;SDS011;51077;42.716;23.344;2022-07-10T06:36:11;5.93;;;4.03;;
64667;SDS011;51077;42.716;23.344;2022-07-10T06:38:37;10.02;;;4.57;;
64667;SDS011;51077;42.716;23.344;2022-07-10T06:41:03;6.07;;;4.37;;
64667;SDS011;51077;42.716;23.344;2022-07-10T06:43:28;5.27;;;4.73;;
64667;SDS011;51077;42.716;23.344;2022-07-10T06:45:54;6.50;;;4.57;;
64667;SDS011;51077;42.716;23.344;2022-07-10T06:48:20;7.15;;;4.07;;
64667;SDS011;51077;42.716;23.344;2022-07-10T06:50:45;6.17;;;3.70;;
64667;SDS011;51077;42.716;23.344;2022-07-10T06:53:11;5.20;;;3.67;;
64667;SDS011;51077;42.716;23.344;2022-07-10T06:55:36;8.23;;;3.90;;
64667;SDS011;51077;42.716;23.344;2022-07-10T06:58:03;15.48;;;4.97;;
64667;SDS011;51077;42.716;23.344;2022-07-10T07:00:28;13.57;;;4.73;;
64667;SDS011;51077;42.716;23.344;2022-07-10T07:02:54;15.83;;;4.30;;
64667;SDS011;51077;42.716;23.344;2022-07-10T07:05:19;8.47;;;4.30;;
64667;SDS011;51077;42.716;23.344;2022-07-10T07:07:45;10.23;;;4.00;;
64667;SDS011;51077;42.716;23.344;2022-07-10T07:10:10;6.30;;;4.03;;
64667;SDS011;51077;42.716;23.344;2022-07-10T07:12:36;6.97;;;3.70;;
64667;SDS011;51077;42.716;23.344;2022-07-10T07:15:02;6.43;;;3.63;;
64667;SDS011;51077;42.716;23.344;2022-07-10T07:17:28;6.13;;;3.90;;
64667;SDS011;51077;42.716;23.344;2022-07-10T07:20:11;6.07;;;3.45;;
64667;SDS011;51077;42.716;23.344;2022-07-10T07:22:55;3.70;;;3.17;;
64667;SDS011;51077;42.716;23.344;2022-07-10T07:25:36;7.70;;;3.20;;
64667;SDS011;51077;42.716;23.344;2022-07-10T07:28:05;5.13;;;3.50;;
64667;SDS011;51077;42.716;23.344;2022-07-10T07:30:30;4.77;;;3.63;;
64667;SDS011;51077;42.716;23.344;2022-07-10T07:32:56;4.20;;;3.80;;
64667;SDS011;51077;42.716;23.344;2022-07-10T07:35:21;9.30;;;4.03;;
64667;SDS011;51077;42.716;23.344;2022-07-10T07:37:48;6.47;;;3.80;;
64667;SDS011;51077;42.716;23.344;2022-07-10T07:40:16;5.28;;;3.70;;
64667;SDS011;51077;42.716;23.344;2022-07-10T07:42:45;7.15;;;3.47;;
64667;SDS011;51077;42.716;23.344;2022-07-10T07:45:10;6.80;;;3.63;;
64667;SDS011;51077;42.716;23.344;2022-07-10T07:48:09;7.43;;;3.67;;
64667;SDS011;51077;42.716;23.344;2022-07-10T07:50:29;5.75;;;3.72;;
64667;SDS011;51077;42.716;23.344;2022-07-10T07:52:59;4.60;;;3.10;;
64667;SDS011;51077;42.716;23.344;2022-07-10T07:55:28;4.90;;;3.40;;
64667;SDS011;51077;42.716;23.344;2022-07-10T07:57:55;9.63;;;3.25;;
64667;SDS011;51077;42.716;23.344;2022-07-10T08:00:22;5.97;;;3.47;;
64667;SDS011;51077;42.716;23.344;2022-07-10T08:02:50;9.18;;;3.22;;
64667;SDS011;51077;42.716;23.344;2022-07-10T08:05:16;5.03;;;3.03;;
64667;SDS011;51077;42.716;23.344;2022-07-10T08:08:03;6.00;;;3.43;;
64667;SDS011;51077;42.716;23.344;2022-07-10T08:10:33;4.75;;;2.95;;
64667;SDS011;51077;42.716;23.344;2022-07-10T08:13:00;7.32;;;3.00;;
64667;SDS011;51077;42.716;23.344;2022-07-10T08:15:26;4.97;;;3.13;;
64667;SDS011;51077;42.716;23.344;2022-07-10T08:17:55;4.00;;;2.83;;
64667;SDS011;51077;42.716;23.344;2022-07-10T08:20:22;5.63;;;2.75;;
64667;SDS011;51077;42.716;23.344;2022-07-10T08:22:48;4.13;;;2.88;;
64667;SDS011;51077;42.716;23.344;2022-07-10T08:25:13;5.37;;;2.90;;
64667;SDS011;51077;42.716;23.344;2022-07-10T08:27:39;7.30;;;2.80;;
64667;SDS011;51077;42.716;23.344;2022-07-10T08:30:05;5.23;;;2.37;;
64667;SDS011;51077;42.716;23.344;2022-07-10T08:32:34;4.45;;;2.67;;
64667;SDS011;51077;42.716;23.344;2022-07-10T08:35:00;6.65;;;2.50;;
64667;SDS011;51077;42.716;23.344;2022-07-10T08:37:25;4.83;;;2.50;;
64667;SDS011;51077;42.716;23.344;2022-07-10T08:39:51;5.50;;;2.60;;
64667;SDS011;51077;42.716;23.344;2022-07-10T08:42:16;4.87;;;2.30;;
64667;SDS011;51077;42.716;23.344;2022-07-10T08:44:43;3.47;;;2.13;;
64667;SDS011;51077;42.716;23.344;2022-07-10T08:47:09;6.00;;;2.30;;
64667;SDS011;51077;42.716;23.344;2022-07-10T08:49:36;6.03;;;2.70;;
64667;SDS011;51077;42.716;23.344;2022-07-10T08:52:04;4.75;;;2.30;;
64667;SDS011;51077;42.716;23.344;2022-07-10T08:54:44;5.63;;;2.60;;
64667;SDS011;51077;42.716;23.344;2022-07-10T08:57:10;3.63;;;2.37;;
64667;SDS011;51077;42.716;23.344;2022-07-10T08:59:36;4.27;;;2.33;;
64667;SDS011;51077;42.716;23.344;2022-07-10T09:02:01;4.97;;;2.50;;
64667;SDS011;51077;42.716;23.344;2022-07-10T09:04:27;4.53;;;2.30;;
64667;SDS011;51077;42.716;23.344;2022-07-10T09:06:53;5.28;;;2.40;;
64667;SDS011;51077;42.716;23.344;2022-07-10T09:09:20;5.63;;;3.28;;
64667;SDS011;51077;42.716;23.344;2022-07-10T09:11:46;3.53;;;2.20;;
64667;SDS011;51077;42.716;23.344;2022-07-10T09:14:15;3.43;;;2.10;;
64667;SDS011;51077;42.716;23.344;2022-07-10T09:16:42;3.50;;;2.35;;
64667;SDS011;51077;42.716;23.344;2022-07-10T09:19:18;4.50;;;2.50;;
64667;SDS011;51077;42.716;23.344;2022-07-10T09:21:49;7.38;;;2.50;;
64667;SDS011;51077;42.716;23.344;2022-07-10T09:24:34;6.88;;;2.58;;
64667;SDS011;51077;42.716;23.344;2022-07-10T09:27:08;3.55;;;2.38;;
64667;SDS011;51077;42.716;23.344;2022-07-10T09:29:47;4.82;;;2.58;;
64667;SDS011;51077;42.716;23.344;2022-07-10T09:32:13;5.47;;;2.10;;
64667;SDS011;51077;42.716;23.344;2022-07-10T09:39:53;4.55;;;2.28;;
64667;SDS011;51077;42.716;23.344;2022-07-10T09:47:37;3.22;;;1.65;;
64667;SDS011;51077;42.716;23.344;2022-07-10T09:52:45;3.15;;;1.73;;
64667;SDS011;51077;42.716;23.344;2022-07-10T09:55:11;4.03;;;1.70;;
64667;SDS011;51077;42.716;23.344;2022-07-10T09:57:39;5.43;;;1.80;;
64667;SDS011;51077;42.716;23.344;2022-07-10T10:00:08;3.77;;;1.77;;
64667;SDS011;51077;42.716;23.344;2022-07-10T10:02:35;3.97;;;1.70;;
64667;SDS011;51077;42.716;23.344;2022-07-10T10:05:03;3.00;;;2.10;;
64667;SDS011;51077;42.716;23.344;2022-07-10T10:07:30;3.33;;;1.73;;
64667;SDS011;51077;42.716;23.344;2022-07-10T10:10:00;2.60;;;1.83;;
64667;SDS011;51077;42.716;23.344;2022-07-10T10:12:35;4.63;;;1.90;;
64667;SDS011;51077;42.716;23.344;2022-07-10T10:15:07;2.83;;;1.70;;
64667;SDS011;51077;42.716;23.344;2022-07-10T10:17:35;2.40;;;1.70;;
64667;SDS011;51077;42.716;23.344;2022-07-10T10:20:02;3.33;;;2.10;;
64667;SDS011;51077;42.716;23.344;2022-07-10T10:22:46;3.37;;;1.93;;
64667;SDS011;51077;42.716;23.344;2022-07-10T10:25:13;2.80;;;1.70;;
64667;SDS011;51077;42.716;23.344;2022-07-10T10:27:42;5.80;;;1.70;;
64667;SDS011;51077;42.716;23.344;2022-07-10T10:30:08;4.33;;;1.73;;
64667;SDS011;51077;42.716;23.344;2022-07-10T10:32:39;3.40;;;1.93;;
64667;SDS011;51077;42.716;23.344;2022-07-10T10:35:05;3.77;;;1.73;;
64667;SDS011;51077;42.716;23.344;2022-07-10T10:37:38;4.33;;;1.53;;
64667;SDS011;51077;42.716;23.344;2022-07-10T10:40:06;3.10;;;1.70;;
64667;SDS011;51077;42.716;23.344;2022-07-10T10:42:41;5.23;;;1.67;;
64667;SDS011;51077;42.716;23.344;2022-07-10T10:48:02;3.15;;;2.00;;
64667;SDS011;51077;42.716;23.344;2022-07-10T10:53:11;3.90;;;1.53;;
64667;SDS011;51077;42.716;23.344;2022-07-10T10:56:26;3.57;;;1.90;;
64667;SDS011;51077;42.716;23.344;2022-07-10T11:01:02;3.47;;;1.80;;
64667;SDS011;51077;42.716;23.344;2022-07-10T11:06:50;2.57;;;1.40;;
64667;SDS011;51077;42.716;23.344;2022-07-10T11:09:31;2.92;;;1.88;;
64667;SDS011;51077;42.716;23.344;2022-07-10T11:12:07;3.00;;;1.70;;
64667;SDS011;51077;42.716;23.344;2022-07-10T11:14:36;3.30;;;1.83;;
64667;SDS011;51077;42.716;23.344;2022-07-10T11:17:05;2.53;;;1.73;;
64667;SDS011;51077;42.716;23.344;2022-07-10T11:19:31;5.07;;;1.80;;
64667;SDS011;51077;42.716;23.344;2022-07-10T11:30:13;3.00;;;1.97;;
64667;SDS011;51077;42.716;23.344;2022-07-10T11:32:38;2.10;;;1.47;;
64667;SDS011;51077;42.716;23.344;2022-07-10T11:35:13;3.87;;;1.53;;
64667;SDS011;51077;42.716;23.344;2022-07-10T11:37:48;4.07;;;1.83;;
64667;SDS011;51077;42.716;23.344;2022-07-10T11:40:18;3.47;;;1.63;;
64667;SDS011;51077;42.716;23.344;2022-07-10T11:42:55;2.78;;;1.50;;
64667;SDS011;51077;42.716;23.344;2022-07-10T11:45:29;4.95;;;1.90;;
64667;SDS011;51077;42.716;23.344;2022-07-10T11:47:57;5.57;;;2.05;;
64667;SDS011;51077;42.716;23.344;2022-07-10T11:50:23;4.28;;;1.67;;
64667;SDS011;51077;42.716;23.344;2022-07-10T11:52:58;4.26;;;1.81;;
64667;SDS011;51077;42.716;23.344;2022-07-10T11:55:26;4.53;;;2.05;;
64667;SDS011;51077;42.716;23.344;2022-07-10T11:57:51;5.53;;;1.77;;
64667;SDS011;51077;42.716;23.344;2022-07-10T12:02:46;2.72;;;1.50;;
64667;SDS011;51077;42.716;23.344;2022-07-10T12:05:29;4.67;;;2.03;;
64667;SDS011;51077;42.716;23.344;2022-07-10T12:07:55;3.08;;;1.70;;
64667;SDS011;51077;42.716;23.344;2022-07-10T12:10:21;6.23;;;1.60;;
64667;SDS011;51077;42.716;23.344;2022-07-10T12:12:51;2.65;;;1.60;;
64667;SDS011;51077;42.716;23.344;2022-07-10T12:15:35;3.07;;;1.67;;
64667;SDS011;51077;42.716;23.344;2022-07-10T12:18:03;3.63;;;1.60;;
64667;SDS011;51077;42.716;23.344;2022-07-10T12:20:30;3.58;;;1.48;;
64667;SDS011;51077;42.716;23.344;2022-07-10T12:22:55;4.28;;;1.33;;
64667;SDS011;51077;42.716;23.344;2022-07-10T12:25:21;2.67;;;1.50;;
64667;SDS011;51077;42.716;23.344;2022-07-10T12:27:47;3.55;;;1.40;;
64667;SDS011;51077;42.716;23.344;2022-07-10T12:30:13;7.20;;;1.50;;
64667;SDS011;51077;42.716;23.344;2022-07-10T12:32:38;4.43;;;1.37;;
64667;SDS011;51077;42.716;23.344;2022-07-10T12:35:04;4.63;;;1.20;;
64667;SDS011;51077;42.716;23.344;2022-07-10T12:37:32;4.20;;;1.67;;
64667;SDS011;51077;42.716;23.344;2022-07-10T12:39:58;4.63;;;1.57;;
64667;SDS011;51077;42.716;23.344;2022-07-10T12:42:25;3.60;;;1.30;;
64667;SDS011;51077;42.716;23.344;2022-07-10T12:44:54;3.17;;;1.35;;
64667;SDS011;51077;42.716;23.344;2022-07-10T12:47:20;3.50;;;1.20;;
64667;SDS011;51077;42.716;23.344;2022-07-10T12:52:37;4.43;;;1.30;;
64667;SDS011;51077;42.716;23.344;2022-07-10T12:55:08;3.75;;;1.20;;
64667;SDS011;51077;42.716;23.344;2022-07-10T13:00:29;3.95;;;1.30;;
64667;SDS011;51077;42.716;23.344;2022-07-10T13:08:06;4.20;;;1.30;;
64667;SDS011;51077;42.716;23.344;2022-07-10T13:10:41;2.35;;;1.30;;
64667;SDS011;51077;42.716;23.344;2022-07-10T13:13:08;3.75;;;1.30;;
64667;SDS011;51077;42.716;23.344;2022-07-10T13:15:35;2.13;;;1.23;;
64667;SDS011;51077;42.716;23.344;2022-07-10T13:18:14;3.65;;;1.30;;
64667;SDS011;51077;42.716;23.344;2022-07-10T13:20:51;2.95;;;1.42;;
64667;SDS011;51077;42.716;23.344;2022-07-10T13:23:18;4.07;;;1.00;;
64667;SDS011;51077;42.716;23.344;2022-07-10T13:25:47;6.13;;;1.00;;
64667;SDS011;51077;42.716;23.344;2022-07-10T13:28:16;2.65;;;0.85;;
64667;SDS011;51077;42.716;23.344;2022-07-10T13:30:42;3.77;;;1.10;;
64667;SDS011;51077;42.716;23.344;2022-07-10T13:33:08;2.30;;;0.70;;
64667;SDS011;51077;42.716;23.344;2022-07-10T13:35:34;1.47;;;0.70;;
64667;SDS011;51077;42.716;23.344;2022-07-10T13:38:00;2.17;;;1.15;;
64667;SDS011;51077;42.716;23.344;2022-07-10T13:40:28;5.53;;;1.13;;
64667;SDS011;51077;42.716;23.344;2022-07-10T13:42:55;2.95;;;1.10;;
64667;SDS011;51077;42.716;23.344;2022-07-10T13:45:21;3.70;;;1.10;;
64667;SDS011;51077;42.716;23.344;2022-07-10T13:47:47;2.70;;;0.90;;
64667;SDS011;51077;42.716;23.344;2022-07-10T13:50:13;4.13;;;0.93;;
64667;SDS011;51077;42.716;23.344;2022-07-10T13:52:39;2.13;;;0.90;;
64667;SDS011;51077;42.716;23.344;2022-07-10T13:55:04;4.43;;;1.07;;
64667;SDS011;51077;42.716;23.344;2022-07-10T13:57:31;2.40;;;1.15;;
64667;SDS011;51077;42.716;23.344;2022-07-10T13:59:57;4.88;;;1.08;;
64667;SDS011;51077;42.716;23.344;2022-07-10T14:02:23;3.93;;;1.10;;
64667;SDS011;51077;42.716;23.344;2022-07-10T14:04:48;2.47;;;0.90;;
64667;SDS011;51077;42.716;23.344;2022-07-10T14:07:14;3.17;;;1.20;;
64667;SDS011;51077;42.716;23.344;2022-07-10T14:09:39;2.73;;;1.00;;
64667;SDS011;51077;42.716;23.344;2022-07-10T14:12:05;1.53;;;0.70;;
64667;SDS011;51077;42.716;23.344;2022-07-10T14:14:31;2.15;;;0.80;;
64667;SDS011;51077;42.716;23.344;2022-07-10T14:16:56;2.87;;;1.10;;
64667;SDS011;51077;42.716;23.344;2022-07-10T14:19:21;2.33;;;1.00;;
64667;SDS011;51077;42.716;23.344;2022-07-10T14:21:47;3.20;;;1.53;;
64667;SDS011;51077;42.716;23.344;2022-07-10T14:24:13;2.13;;;0.90;;
64667;SDS011;51077;42.716;23.344;2022-07-10T14:26:38;2.10;;;1.10;;
64667;SDS011;51077;42.716;23.344;2022-07-10T14:29:04;1.77;;;0.90;;
64667;SDS011;51077;42.716;23.344;2022-07-10T14:31:29;2.47;;;1.10;;
64667;SDS011;51077;42.716;23.344;2022-07-10T14:33:55;3.07;;;1.00;;
64667;SDS011;51077;42.716;23.344;2022-07-10T14:36:21;2.75;;;1.30;;
64667;SDS011;51077;42.716;23.344;2022-07-10T14:38:54;2.53;;;0.90;;
64667;SDS011;51077;42.716;23.344;2022-07-10T14:41:20;3.00;;;1.40;;
64667;SDS011;51077;42.716;23.344;2022-07-10T14:43:46;2.43;;;0.90;;
64667;SDS011;51077;42.716;23.344;2022-07-10T14:46:11;4.33;;;1.10;;
64667;SDS011;51077;42.716;23.344;2022-07-10T14:48:36;2.73;;;1.00;;
64667;SDS011;51077;42.716;23.344;2022-07-10T14:51:02;3.77;;;1.40;;
64667;SDS011;51077;42.716;23.344;2022-07-10T14:53:28;2.43;;;1.07;;
64667;SDS011;51077;42.716;23.344;2022-07-10T14:55:54;4.53;;;1.23;;
64667;SDS011;51077;42.716;23.344;2022-07-10T14:58:20;20.37;;;2.27;;
64667;SDS011;51077;42.716;23.344;2022-07-10T15:00:45;1.70;;;0.80;;
64667;SDS011;51077;42.716;23.344;2022-07-10T15:03:10;4.40;;;1.27;;
64667;SDS011;51077;42.716;23.344;2022-07-10T15:05:36;3.60;;;1.20;;
64667;SDS011;51077;42.716;23.344;2022-07-10T15:08:01;2.00;;;1.00;;
64667;SDS011;51077;42.716;23.344;2022-07-10T15:10:28;1.65;;;0.80;;
64667;SDS011;51077;42.716;23.344;2022-07-10T15:12:54;2.23;;;0.90;;
64667;SDS011;51077;42.716;23.344;2022-07-10T15:15:20;2.10;;;0.90;;
64667;SDS011;51077;42.716;23.344;2022-07-10T15:17:45;3.60;;;1.20;;
64667;SDS011;51077;42.716;23.344;2022-07-10T15:20:11;2.00;;;0.90;;